createdAt,value
2022-11-21T00:00:26.528Z,5.32
2022-11-21T00:02:56.465Z,5.39
2022-11-21T00:05:25.334Z,5.24
2022-11-21T00:07:56.226Z,5.16
2022-11-21T00:10:25.150Z,5.21
2022-11-21T00:12:56.579Z,5.08
2022-11-21T00:15:25.742Z,4.96
2022-11-21T00:17:54.835Z,5.06
2022-11-21T00:20:23.970Z,5.16
2022-11-21T00:22:52.803Z,5.11
2022-11-21T00:25:23.102Z,5.09
2022-11-21T00:27:51.978Z,4.72
2022-11-21T00:30:22.293Z,4.73
2022-11-21T00:32:51.195Z,4.61
2022-11-21T00:35:20.158Z,4.81
2022-11-21T00:37:51.179Z,4.78
2022-11-21T00:40:20.262Z,4.80
2022-11-21T00:42:50.543Z,4.70
2022-11-21T00:45:24.145Z,4.93
2022-11-21T00:47:53.451Z,4.99
2022-11-21T00:50:22.631Z,4.97
2022-11-21T00:52:51.503Z,4.92
2022-11-21T00:55:20.436Z,5.01
2022-11-21T00:57:50.703Z,4.88
2022-11-21T01:00:22.904Z,4.71
2022-11-21T01:02:51.833Z,4.68
2022-11-21T01:05:20.736Z,4.64
2022-11-21T01:07:50.527Z,4.51
2022-11-21T01:10:19.455Z,4.66
2022-11-21T01:12:49.702Z,4.68
2022-11-21T01:15:18.738Z,4.79
2022-11-21T01:17:47.908Z,4.75
2022-11-21T01:20:16.885Z,4.88
2022-11-21T01:22:45.802Z,4.70
2022-11-21T01:25:14.732Z,4.84
2022-11-21T01:27:43.900Z,4.80
2022-11-21T01:30:15.142Z,4.84
2022-11-21T01:32:44.000Z,4.87
2022-11-21T01:35:13.023Z,4.93
2022-11-21T01:37:42.380Z,4.95
2022-11-21T01:40:12.415Z,5.09
2022-11-21T01:42:55.575Z,4.73
2022-11-21T01:45:53.680Z,4.74
2022-11-21T01:48:29.495Z,4.85
2022-11-21T01:50:59.792Z,4.76
2022-11-21T01:53:28.684Z,4.93
2022-11-21T01:55:57.572Z,5.10
2022-11-21T01:58:26.790Z,5.06
2022-11-21T02:00:55.807Z,5.14
2022-11-21T02:03:27.909Z,4.88
2022-11-21T02:05:56.836Z,5.02
2022-11-21T02:08:25.981Z,4.97
2022-11-21T02:10:58.669Z,5.06
2022-11-21T02:13:28.338Z,4.97
2022-11-21T02:15:57.499Z,4.99
2022-11-21T02:18:30.764Z,4.93
2022-11-21T02:21:05.108Z,4.96
2022-11-21T02:23:36.087Z,5.06
2022-11-21T02:26:06.415Z,4.98
2022-11-21T02:28:35.322Z,5.12
2022-11-21T02:31:04.252Z,5.09
2022-11-21T02:33:35.369Z,4.66
2022-11-21T02:36:04.773Z,4.69
2022-11-21T02:38:34.458Z,4.58
2022-11-21T02:41:07.506Z,4.65
2022-11-21T02:43:38.407Z,4.60
2022-11-21T02:46:07.311Z,4.87
2022-11-21T02:48:36.495Z,4.95
2022-11-21T02:51:05.452Z,4.86
2022-11-21T02:53:34.632Z,4.76
2022-11-21T02:56:03.505Z,4.97
2022-11-21T02:58:34.273Z,5.04
2022-11-21T03:01:03.174Z,5.04
2022-11-21T03:03:32.085Z,5.09
2022-11-21T03:06:01.008Z,5.02
2022-11-21T03:08:29.990Z,4.92
2022-11-21T03:10:58.864Z,4.91
2022-11-21T03:13:28.001Z,4.90
2022-11-21T03:15:58.333Z,5.03
2022-11-21T03:18:27.191Z,4.97
2022-11-21T03:20:56.042Z,4.97
2022-11-21T03:23:25.179Z,5.16
2022-11-21T03:25:54.061Z,5.12
2022-11-21T03:28:22.968Z,5.11
2022-11-21T03:30:51.807Z,5.14
2022-11-21T03:33:22.074Z,4.75
2022-11-21T03:35:53.806Z,4.89
2022-11-21T03:38:22.991Z,4.96
2022-11-21T03:40:51.851Z,5.04
2022-11-21T03:43:20.669Z,4.95
2022-11-21T03:45:49.596Z,5.00
2022-11-21T03:48:18.922Z,4.75
2022-11-21T03:50:49.320Z,4.76
2022-11-21T03:53:18.573Z,4.78
2022-11-21T03:55:47.405Z,4.83
2022-11-21T03:58:16.533Z,4.98
2022-11-21T04:00:46.419Z,4.92
2022-11-21T04:03:15.319Z,5.06
2022-11-21T04:05:46.117Z,4.86
2022-11-21T04:08:16.429Z,5.01
2022-11-21T04:10:49.434Z,4.95
2022-11-21T04:13:18.391Z,4.96
2022-11-21T04:15:47.747Z,5.09
2022-11-21T04:18:16.838Z,4.95
2022-11-21T04:20:46.856Z,5.10
2022-11-21T04:23:17.514Z,5.15
2022-11-21T04:25:46.396Z,5.05
2022-11-21T04:28:15.617Z,4.70
2022-11-21T04:30:44.535Z,4.67
2022-11-21T04:33:13.797Z,4.55
2022-11-21T04:35:42.698Z,4.47
2022-11-21T04:38:11.785Z,4.52
2022-11-21T04:40:41.992Z,4.45
2022-11-21T04:43:11.241Z,4.58
2022-11-21T04:45:40.073Z,4.35
2022-11-21T04:48:09.258Z,4.18
2022-11-21T04:50:38.115Z,4.41
2022-11-21T04:53:07.058Z,4.47
2022-11-21T04:55:36.157Z,4.35
2022-11-21T04:58:12.437Z,4.42
2022-11-21T05:00:41.358Z,4.52
2022-11-21T05:03:11.076Z,4.56
2022-11-21T05:05:39.933Z,4.69
2022-11-21T05:08:08.818Z,4.65
2022-11-21T05:10:57.897Z,4.74
2022-11-21T05:13:28.113Z,4.74
2022-11-21T05:15:58.652Z,4.82
2022-11-21T05:18:27.518Z,4.79
2022-11-21T05:20:56.376Z,4.77
2022-11-21T05:23:25.537Z,4.76
2022-11-21T05:25:54.434Z,4.64
2022-11-21T05:28:23.308Z,4.68
2022-11-21T05:30:53.953Z,4.73
2022-11-21T05:33:22.845Z,4.86
2022-11-21T05:35:51.685Z,4.98
2022-11-21T05:38:23.382Z,4.88
2022-11-21T05:40:54.005Z,4.85
2022-11-21T05:43:38.692Z,4.87
2022-11-21T05:46:09.036Z,4.88
2022-11-21T05:48:38.469Z,5.06
2022-11-21T05:51:07.334Z,5.09
2022-11-21T05:53:37.631Z,5.08
2022-11-21T05:56:07.540Z,5.03
2022-11-21T05:58:36.767Z,5.07
2022-11-21T06:01:08.461Z,5.13
2022-11-21T06:03:38.990Z,5.19
2022-11-21T06:06:08.495Z,5.08
2022-11-21T06:08:38.015Z,5.26
2022-11-21T06:11:07.423Z,4.96
2022-11-21T06:13:36.866Z,4.95
2022-11-21T06:16:07.348Z,5.30
2022-11-21T06:18:40.497Z,5.14
2022-11-21T06:21:09.962Z,5.18
2022-11-21T06:23:38.986Z,5.34
2022-11-21T06:26:09.054Z,5.28
2022-11-21T06:28:38.752Z,5.44
2022-11-21T06:31:07.840Z,5.32
2022-11-21T06:33:36.805Z,5.34
2022-11-21T06:36:08.078Z,5.45
2022-11-21T06:38:36.901Z,5.45
2022-11-21T06:41:07.110Z,5.52
2022-11-21T06:43:35.958Z,5.44
2022-11-21T06:46:04.850Z,5.50
2022-11-21T06:48:33.751Z,5.44
2022-11-21T06:51:07.327Z,5.40
2022-11-21T06:53:36.634Z,5.44
2022-11-21T06:56:05.786Z,5.52
2022-11-21T06:58:34.684Z,5.71
2022-11-21T07:03:52.166Z,5.43
2022-11-21T07:06:22.501Z,5.68
2022-11-21T07:09:17.470Z,5.77
2022-11-21T07:11:42.731Z,5.60
2022-11-21T07:14:10.789Z,5.63
2022-11-21T07:16:39.749Z,5.46
2022-11-21T07:19:11.416Z,5.44
2022-11-21T07:21:43.406Z,5.57
2022-11-21T07:24:12.376Z,5.54
2022-11-21T07:26:41.348Z,5.69
2022-11-21T07:29:10.322Z,5.68
2022-11-21T07:31:39.474Z,5.61
2022-11-21T07:34:08.344Z,5.61
2022-11-21T07:36:37.713Z,5.81
2022-11-21T07:39:08.132Z,5.67
2022-11-21T07:41:36.995Z,5.85
2022-11-21T07:44:05.948Z,5.89
2022-11-21T07:46:34.867Z,5.88
2022-11-21T07:49:03.987Z,5.87
2022-11-21T07:51:32.960Z,5.92
2022-11-21T07:54:01.815Z,5.98
2022-11-21T07:56:32.069Z,6.07
2022-11-21T07:59:02.496Z,6.13
2022-11-21T08:01:31.422Z,6.01
2022-11-21T08:04:02.916Z,6.10
2022-11-21T08:06:31.756Z,6.14
2022-11-21T08:09:00.777Z,6.24
2022-11-21T08:11:47.055Z,6.19
2022-11-21T08:14:17.328Z,6.09
2022-11-21T08:16:46.180Z,6.23
2022-11-21T08:19:15.064Z,6.23
2022-11-21T08:21:43.946Z,6.29
2022-11-21T08:24:14.990Z,6.15
2022-11-21T08:26:43.867Z,6.22
2022-11-21T08:29:12.953Z,6.25
2022-11-21T08:31:43.304Z,6.19
2022-11-21T08:37:58.015Z,6.25
2022-11-21T08:40:27.501Z,6.17
2022-11-21T08:42:59.235Z,6.24
2022-11-21T08:45:30.340Z,6.30
2022-11-21T08:48:03.925Z,6.44
2022-11-21T08:50:33.496Z,6.48
2022-11-21T08:53:03.271Z,6.50
2022-11-21T08:55:32.948Z,6.54
2022-11-21T08:58:01.823Z,6.39
2022-11-21T09:00:30.722Z,6.33
2022-11-21T09:03:00.989Z,6.45
2022-11-21T09:05:29.827Z,6.54
2022-11-21T09:07:58.958Z,6.70
2022-11-21T09:10:27.843Z,6.60
2022-11-21T09:12:58.311Z,6.55
2022-11-21T09:15:40.780Z,6.56
2022-11-21T09:18:12.777Z,6.28
2022-11-21T09:20:42.405Z,6.39
2022-11-21T09:23:12.205Z,6.41
2022-11-21T09:25:41.095Z,6.43
2022-11-21T09:28:10.522Z,6.50
2022-11-21T09:30:39.433Z,6.34
2022-11-21T09:33:09.504Z,6.49
2022-11-21T09:35:40.063Z,6.38
2022-11-21T09:38:09.461Z,6.51
2022-11-21T09:40:38.400Z,6.79
2022-11-21T09:43:23.582Z,6.76
2022-11-21T09:45:53.181Z,6.78
2022-11-21T09:48:23.693Z,6.89
2022-11-21T09:51:04.696Z,7.00
2022-11-21T09:53:36.652Z,6.85
2022-11-21T09:56:06.989Z,6.67
2022-11-21T09:58:38.757Z,6.68
2022-11-21T10:01:07.769Z,6.79
2022-11-21T10:03:40.103Z,6.62
2022-11-21T10:06:15.998Z,6.79
2022-11-21T10:08:59.746Z,6.82
2022-11-21T10:11:59.514Z,6.76
2022-11-21T10:14:33.826Z,6.84
2022-11-21T10:17:20.827Z,6.90
2022-11-21T10:19:57.253Z,7.04
2022-11-21T10:22:39.797Z,7.01
2022-11-21T10:25:14.347Z,7.06
2022-11-21T10:27:47.342Z,7.24
2022-11-21T10:30:17.637Z,7.23
2022-11-21T10:32:47.986Z,7.40
2022-11-21T10:35:17.831Z,7.14
2022-11-21T10:37:50.478Z,7.12
2022-11-21T10:40:30.771Z,7.31
2022-11-21T10:43:22.303Z,7.52
2022-11-21T10:45:51.363Z,7.60
2022-11-21T10:48:20.218Z,7.55
2022-11-21T10:50:59.205Z,7.75
2022-11-21T10:53:43.088Z,7.49
2022-11-21T10:56:13.748Z,7.57
2022-11-21T10:58:44.471Z,7.48
2022-11-21T11:01:21.987Z,7.51
2022-11-21T11:04:25.981Z,7.28
2022-11-21T11:06:55.432Z,7.49
2022-11-21T11:09:28.500Z,7.31
2022-11-21T11:12:22.519Z,7.40
2022-11-21T11:14:52.690Z,7.31
2022-11-21T11:17:29.055Z,7.35
2022-11-21T11:20:04.906Z,7.47
2022-11-21T11:22:33.796Z,7.25
2022-11-21T11:25:05.263Z,7.30
2022-11-21T11:27:39.126Z,7.53
2022-11-21T11:30:52.929Z,7.39
2022-11-21T11:33:33.415Z,7.40
2022-11-21T11:36:10.499Z,7.53
2022-11-21T11:38:39.434Z,7.31
2022-11-21T11:41:12.815Z,7.44
2022-11-21T11:43:56.703Z,7.46
2022-11-21T11:46:47.095Z,7.58
2022-11-21T11:49:21.120Z,7.73
2022-11-21T11:51:52.426Z,7.54
2022-11-21T11:54:23.947Z,7.59
2022-11-21T11:56:54.564Z,7.70
2022-11-21T11:59:24.444Z,7.62
2022-11-21T12:01:55.213Z,7.66
2022-11-21T12:04:25.544Z,7.47
2022-11-21T12:09:47.410Z,7.47
2022-11-21T12:12:20.612Z,7.29
2022-11-21T12:15:10.462Z,7.29
2022-11-21T12:17:42.161Z,7.32
2022-11-21T12:20:17.235Z,7.27
2022-11-21T12:22:47.168Z,7.39
2022-11-21T12:25:19.158Z,7.21
2022-11-21T12:27:49.419Z,7.58
2022-11-21T12:30:35.506Z,7.79
2022-11-21T12:33:08.854Z,7.54
2022-11-21T12:35:48.507Z,7.56
2022-11-21T12:38:25.226Z,7.16
2022-11-21T12:40:59.954Z,7.25
2022-11-21T12:43:32.470Z,7.39
2022-11-21T12:46:04.851Z,7.65
2022-11-21T12:48:55.100Z,7.17
2022-11-21T12:51:46.221Z,7.43
2022-11-21T12:54:33.701Z,7.70
2022-11-21T12:57:10.248Z,7.83
2022-11-21T12:59:45.782Z,7.72
2022-11-21T13:02:20.055Z,7.97
2022-11-21T13:04:49.003Z,7.52
2022-11-21T13:07:18.202Z,7.45
2022-11-21T13:09:49.194Z,7.42
2022-11-21T13:12:23.040Z,7.44
2022-11-21T13:14:54.353Z,7.72
2022-11-21T13:17:30.913Z,7.21
2022-11-21T13:20:01.372Z,7.40
2022-11-21T13:22:50.779Z,7.43
2022-11-21T13:25:40.788Z,7.68
2022-11-21T13:28:31.152Z,7.21
2022-11-21T13:31:02.048Z,7.21
2022-11-21T13:33:49.659Z,6.92
2022-11-21T13:36:38.672Z,7.21
2022-11-21T13:39:28.274Z,7.23
2022-11-21T13:42:20.981Z,7.12
2022-11-21T13:44:50.097Z,7.27
2022-11-21T13:50:15.445Z,7.68
2022-11-21T13:52:47.166Z,7.77
2022-11-21T13:55:34.372Z,7.60
2022-11-21T13:58:07.793Z,7.61
2022-11-21T14:00:52.093Z,7.27
2022-11-21T14:03:33.607Z,7.46
2022-11-21T14:06:15.166Z,7.30
2022-11-21T14:08:48.031Z,7.21
2022-11-21T14:11:22.684Z,7.12
2022-11-21T14:13:51.727Z,6.97
2022-11-21T14:16:27.633Z,7.06
2022-11-21T14:18:56.609Z,7.01
2022-11-21T14:21:28.118Z,6.92
2022-11-21T14:24:04.764Z,6.93
2022-11-21T14:26:33.667Z,7.23
2022-11-21T14:29:18.525Z,7.02
2022-11-21T14:31:48.060Z,6.97
2022-11-21T14:34:26.848Z,6.91
2022-11-21T14:36:59.632Z,6.81
2022-11-21T14:39:37.740Z,6.74
2022-11-21T14:42:12.338Z,6.78
2022-11-21T14:44:41.215Z,6.61
2022-11-21T14:47:19.811Z,6.49
2022-11-21T14:49:54.416Z,6.46
2022-11-21T14:52:26.497Z,6.79
2022-11-21T14:57:45.732Z,6.87
2022-11-21T15:00:51.345Z,6.63
2022-11-21T15:03:06.957Z,6.42
2022-11-21T15:11:24.609Z,6.22
2022-11-21T15:14:14.911Z,6.26
2022-11-21T15:16:44.924Z,6.12
2022-11-21T15:19:19.072Z,6.10
2022-11-21T15:21:48.903Z,5.86
2022-11-21T15:24:20.225Z,5.95
2022-11-21T15:26:49.594Z,5.84
2022-11-21T15:29:22.613Z,5.86
2022-11-21T15:32:07.627Z,5.78
2022-11-21T15:34:37.024Z,5.74
2022-11-21T15:37:08.735Z,5.89
2022-11-21T15:39:44.505Z,5.78
2022-11-21T15:42:31.047Z,5.72
2022-11-21T15:45:00.639Z,5.49
2022-11-21T15:47:31.081Z,5.49
2022-11-21T15:49:59.964Z,5.48
2022-11-21T15:52:28.916Z,5.53
2022-11-21T15:54:59.238Z,5.36
2022-11-21T15:57:28.756Z,5.44
2022-11-21T16:00:16.366Z,5.26
2022-11-21T16:02:45.305Z,5.37
2022-11-21T16:05:14.800Z,5.25
2022-11-21T16:07:44.793Z,5.32
2022-11-21T16:10:22.620Z,5.17
2022-11-21T16:13:01.158Z,5.07
2022-11-21T16:15:30.172Z,5.06
2022-11-21T16:17:59.171Z,4.92
2022-11-21T16:20:30.583Z,5.00
2022-11-21T16:22:59.518Z,4.99
2022-11-21T16:25:30.150Z,5.03
2022-11-21T16:28:02.838Z,5.09
2022-11-21T16:30:53.300Z,5.18
2022-11-21T16:33:26.976Z,5.22
2022-11-21T16:35:57.310Z,5.09
2022-11-21T16:38:29.098Z,5.20
2022-11-21T16:41:00.029Z,5.28
2022-11-21T16:43:29.244Z,5.36
2022-11-21T16:45:58.187Z,5.21
2022-11-21T16:48:27.608Z,5.03
2022-11-21T16:50:56.478Z,5.04
2022-11-21T16:53:25.439Z,5.16
2022-11-21T16:56:06.067Z,5.12
2022-11-21T16:58:35.366Z,4.98
2022-11-21T17:01:11.142Z,5.00
2022-11-21T17:03:40.453Z,5.04
2022-11-21T17:06:11.245Z,5.12
2022-11-21T17:08:40.205Z,5.06
2022-11-21T17:11:16.696Z,5.00
2022-11-21T17:13:47.142Z,5.15
2022-11-21T17:16:16.448Z,5.09
2022-11-21T17:18:45.516Z,5.19
2022-11-21T17:21:16.170Z,5.20
2022-11-21T17:23:49.060Z,5.19
2022-11-21T17:26:20.396Z,5.08
2022-11-21T17:28:53.405Z,5.20
2022-11-21T17:31:22.334Z,5.30
2022-11-21T17:33:52.103Z,5.22
2022-11-21T17:36:21.910Z,5.14
2022-11-21T17:38:50.815Z,5.23
2022-11-21T17:41:21.764Z,5.48
2022-11-21T17:43:50.659Z,5.36
2022-11-21T17:46:20.293Z,5.21
2022-11-21T17:48:55.449Z,5.29
2022-11-21T17:51:27.221Z,5.41
2022-11-21T17:53:56.132Z,5.29
2022-11-21T17:56:27.399Z,5.25
2022-11-21T17:58:56.297Z,5.24
2022-11-21T18:01:25.306Z,5.09
2022-11-21T18:03:57.004Z,5.34
2022-11-21T18:06:25.978Z,5.53
2022-11-21T18:08:54.816Z,5.15
2022-11-21T18:11:23.857Z,5.14
2022-11-21T18:13:54.724Z,5.40
2022-11-21T18:16:24.315Z,5.34
2022-11-21T18:18:55.995Z,5.39
2022-11-21T18:21:26.740Z,5.20
2022-11-21T18:23:55.990Z,5.29
2022-11-21T18:26:39.051Z,5.22
2022-11-21T18:29:35.248Z,5.15
2022-11-21T18:32:04.172Z,5.41
2022-11-21T18:34:33.093Z,5.48
2022-11-21T18:37:01.999Z,5.49
2022-11-21T18:39:31.271Z,5.36
2022-11-21T18:42:00.252Z,5.28
2022-11-21T18:44:30.645Z,5.43
2022-11-21T18:46:59.692Z,5.24
2022-11-21T18:49:50.029Z,5.46
2022-11-21T18:52:20.450Z,5.17
2022-11-21T18:54:49.338Z,5.12
2022-11-21T18:57:18.202Z,5.20
2022-11-21T18:59:48.804Z,5.32
2022-11-21T19:02:17.733Z,5.26
2022-11-21T19:04:46.775Z,5.19
2022-11-21T19:07:15.624Z,5.21
2022-11-21T19:09:44.868Z,5.18
2022-11-21T19:12:13.719Z,5.20
2022-11-21T19:14:42.714Z,5.25
2022-11-21T19:17:13.139Z,5.31
2022-11-21T19:19:43.341Z,5.17
2022-11-21T19:22:12.314Z,5.25
2022-11-21T19:24:42.815Z,5.10
2022-11-21T19:27:11.975Z,5.19
2022-11-21T19:29:40.854Z,5.11
2022-11-21T19:32:09.734Z,5.17
2022-11-21T19:34:40.314Z,5.21
2022-11-21T19:37:09.209Z,5.03
2022-11-21T19:39:38.067Z,5.19
2022-11-21T19:42:07.089Z,5.18
2022-11-21T19:44:35.961Z,5.14
2022-11-21T19:47:04.810Z,5.10
2022-11-21T19:49:34.023Z,5.12
2022-11-21T19:52:04.271Z,5.04
2022-11-21T19:54:33.185Z,5.04
2022-11-21T19:57:02.075Z,5.04
2022-11-21T19:59:31.988Z,4.95
2022-11-21T20:02:01.919Z,5.07
2022-11-21T20:04:31.296Z,5.14
2022-11-21T20:07:04.920Z,5.13
2022-11-21T20:09:38.293Z,5.10
2022-11-21T20:12:07.464Z,5.30
2022-11-21T20:14:36.339Z,5.22
2022-11-21T20:17:05.497Z,5.28
2022-11-21T20:19:34.486Z,5.18
2022-11-21T20:22:03.359Z,5.26
2022-11-21T20:24:35.932Z,5.26
2022-11-21T20:27:10.330Z,5.31
2022-11-21T20:29:40.222Z,5.41
2022-11-21T20:32:09.438Z,5.34
2022-11-21T20:34:38.906Z,5.44
2022-11-21T20:37:07.954Z,5.39
2022-11-21T20:39:36.839Z,5.38
2022-11-21T20:42:05.893Z,5.37
2022-11-21T20:45:41.675Z,5.48
2022-11-21T20:47:27.390Z,5.43
2022-11-21T20:49:56.258Z,5.34
2022-11-21T20:53:49.489Z,5.32
2022-11-21T20:55:14.763Z,5.41
2022-11-21T20:57:43.919Z,5.40
2022-11-21T21:00:16.382Z,5.39
2022-11-21T21:02:45.266Z,5.59
2022-11-21T21:05:14.187Z,5.52
2022-11-21T21:07:43.141Z,5.60
2022-11-21T21:10:14.781Z,5.40
2022-11-21T21:12:48.494Z,5.49
2022-11-21T21:15:19.185Z,5.42
2022-11-21T21:17:53.225Z,5.51
2022-11-21T21:20:22.153Z,5.67
2022-11-21T21:22:55.085Z,5.59
2022-11-21T21:25:24.749Z,5.57
2022-11-21T21:27:53.720Z,5.53
2022-11-21T21:30:25.507Z,5.68
2022-11-21T21:32:54.473Z,5.77
2022-11-21T21:35:23.364Z,5.80
2022-11-21T21:37:52.297Z,5.42
2022-11-21T21:40:21.154Z,5.50
2022-11-21T21:42:50.037Z,5.52
2022-11-21T21:45:19.184Z,5.55
2022-11-21T21:47:49.489Z,5.40
2022-11-21T21:50:21.173Z,5.54
2022-11-21T21:52:50.022Z,5.48
2022-11-21T21:55:21.239Z,5.50
2022-11-21T21:57:52.611Z,5.49
2022-11-21T22:00:21.876Z,5.65
2022-11-21T22:03:03.836Z,5.52
2022-11-21T22:05:37.022Z,5.48
2022-11-21T22:08:05.981Z,5.45
2022-11-21T22:10:34.859Z,5.46
2022-11-21T22:13:03.757Z,5.52
2022-11-21T22:15:32.881Z,5.48
2022-11-21T22:18:03.204Z,5.52
2022-11-21T22:20:32.096Z,5.52
2022-11-21T22:23:00.957Z,5.44
2022-11-21T22:25:29.959Z,5.49
2022-11-21T22:28:02.210Z,5.42
2022-11-21T22:30:31.065Z,5.47
2022-11-21T22:32:59.955Z,5.39
2022-11-21T22:35:30.229Z,5.37
2022-11-21T22:37:59.119Z,5.46
2022-11-21T22:40:28.329Z,5.46
2022-11-21T22:42:57.177Z,5.33
2022-11-21T22:45:26.060Z,5.32
2022-11-21T22:47:55.028Z,5.32
2022-11-21T22:50:23.944Z,5.62
2022-11-21T22:52:54.573Z,5.29
2022-11-21T22:55:23.432Z,5.32
2022-11-21T22:57:52.333Z,5.35
2022-11-21T23:00:21.379Z,5.34
2022-11-21T23:02:50.541Z,5.35
2022-11-21T23:05:20.396Z,5.32
2022-11-21T23:07:49.316Z,5.28
2022-11-21T23:10:19.931Z,5.16
2022-11-21T23:12:48.830Z,5.48
2022-11-21T23:15:17.808Z,5.28
2022-11-21T23:17:52.365Z,5.29
2022-11-21T23:20:21.504Z,5.22
2022-11-21T23:22:50.398Z,5.20
2022-11-21T23:25:21.346Z,5.10
2022-11-21T23:27:50.228Z,5.10
2022-11-21T23:30:19.448Z,5.18
2022-11-21T23:32:48.270Z,5.34
2022-11-21T23:35:17.377Z,5.07
2022-11-21T23:37:46.272Z,5.26
2022-11-21T23:40:15.458Z,5.03
2022-11-21T23:42:46.951Z,5.07
2022-11-21T23:45:16.917Z,5.14
2022-11-21T23:47:45.764Z,5.19
2022-11-21T23:50:14.885Z,5.36
2022-11-21T23:52:43.803Z,5.12
2022-11-21T23:55:12.653Z,5.11
2022-11-21T23:57:41.544Z,5.22
